Time;durP1;ratioP1;P1;durP2;ratioP2;P2;SDS_P1;SDS_P2;PMS_P1;PMS_P2;Temp;Humidity;BMP_temperature;BMP_pressure;BME280_temperature;BME280_humidity;BME280_pressure;Samples;Min_cycle;Max_cycle;Signal;HPM_P1;HPM_P2
2023/11/07 00:00:01;;;;;;;;;7.33;6.33;;;;;15.46;100.00;100342.56;2076969;28;46291;-54
2023/11/07 00:01:02;;;;;;;;;4.00;2.33;;;;;15.48;100.00;100344.22;2072395;28;46275;-56
2023/11/07 00:02:02;;;;;;;;;4.00;3.00;;;;;15.47;100.00;100350.50;2065880;28;46420;-56
2023/11/07 00:03:03;;;;;;;;;2.33;2.33;;;;;15.46;100.00;100337.22;2073994;28;47053;-55
2023/11/07 00:04:03;;;;;;;;;3.00;3.00;;;;;15.46;100.00;100351.44;2063947;28;46744;-55
2023/11/07 00:05:04;;;;;;;;;4.00;4.00;;;;;15.45;100.00;100343.50;2067202;28;45671;-54
2023/11/07 00:06:05;;;;;;;;;4.50;3.50;;;;;15.44;100.00;100341.78;2077814;27;46340;-55
2023/11/07 00:07:05;;;;;;;;;5.67;5.67;;;;;15.44;100.00;100345.31;2070440;27;46344;-57
2023/11/07 00:08:06;;;;;;;;;5.00;5.00;;;;;15.45;100.00;100352.38;2072819;28;46584;-54
2023/11/07 00:09:09;;;;;;;;;5.33;4.67;;;;;15.43;100.00;100348.06;2070323;28;46254;-56
2023/11/07 00:10:10;;;;;;;;;3.75;3.00;;;;;15.40;100.00;100343.72;2068088;28;46983;-55
2023/11/07 00:11:11;;;;;;;;;2.33;2.33;;;;;15.40;100.00;100345.53;2069624;28;45987;-57
2023/11/07 00:12:11;;;;;;;;;4.00;4.00;;;;;15.40;100.00;100353.56;2057579;28;46136;-58
2023/11/07 00:13:11;;;;;;;;;6.00;5.00;;;;;15.40;100.00;100350.88;2075717;28;46651;-55
2023/11/07 00:14:12;;;;;;;;;2.33;2.33;;;;;15.40;100.00;100351.75;2062033;28;47165;-56
2023/11/07 00:15:13;;;;;;;;;5.00;4.00;;;;;15.40;100.00;100351.75;2068032;28;45022;-57
2023/11/07 00:16:14;;;;;;;;;3.50;3.00;;;;;15.40;100.00;100350.88;2069846;28;47207;-55
2023/11/07 00:17:14;;;;;;;;;2.00;2.00;;;;;15.39;100.00;100342.00;2065537;28;45467;-58
2023/11/07 00:18:15;;;;;;;;;2.00;2.00;;;;;15.44;100.00;100350.66;2061195;28;45547;-56
2023/11/07 00:19:15;;;;;;;;;4.67;3.00;;;;;15.46;100.00;100350.59;2063809;28;45933;-58
2023/11/07 00:20:15;;;;;;;;;3.00;3.00;;;;;15.47;100.00;100344.28;2066106;28;46267;-54
2023/11/07 00:21:16;;;;;;;;;3.67;2.00;;;;;15.46;100.00;100346.09;2063889;28;46809;-54
2023/11/07 00:22:16;;;;;;;;;7.00;6.00;;;;;15.47;100.00;100344.28;2065312;28;45700;-56
2023/11/07 00:23:17;;;;;;;;;4.00;4.00;;;;;15.48;100.00;100348.69;2062137;28;46707;-51
2023/11/07 00:24:17;;;;;;;;;5.00;4.33;;;;;15.50;100.00;100345.03;2060403;28;46415;-55
2023/11/07 00:25:17;;;;;;;;;2.00;2.00;;;;;15.44;100.00;100345.31;2067347;28;46839;-53
2023/11/07 00:26:18;;;;;;;;;3.00;3.00;;;;;15.44;100.00;100342.63;2103164;28;46681;-55
2023/11/07 00:27:19;;;;;;;;;3.00;3.00;;;;;15.45;100.00;100344.38;2061453;28;46587;-50
2023/11/07 00:28:20;;;;;;;;;5.33;3.67;;;;;15.44;100.00;100344.44;2062386;28;46540;-56
2023/11/07 00:29:22;;;;;;;;;3.67;3.67;;;;;15.44;100.00;100355.13;2096097;28;45803;-55
2023/11/07 00:30:23;;;;;;;;;4.25;3.50;;;;;15.43;100.00;100348.94;2096986;28;47000;-55
2023/11/07 00:31:23;;;;;;;;;5.00;3.67;;;;;15.43;100.00;100348.94;2105523;27;46508;-56
2023/11/07 00:32:23;;;;;;;;;4.33;3.67;;;;;15.43;100.00;100354.28;2096706;27;46466;-56
2023/11/07 00:33:24;;;;;;;;;4.67;4.67;;;;;15.42;100.00;100352.53;2096955;28;46348;-54
2023/11/07 00:34:24;;;;;;;;;2.67;2.67;;;;;15.44;100.00;100357.81;2106250;28;46160;-54
2023/11/07 00:35:24;;;;;;;;;4.67;3.00;;;;;15.42;100.00;100351.69;2079767;28;46616;-56
2023/11/07 00:36:25;;;;;;;;;2.67;2.67;;;;;15.42;100.00;100355.22;2062475;28;45802;-56
2023/11/07 00:37:25;;;;;;;;;3.67;3.67;;;;;15.42;100.00;100352.53;2095807;28;46317;-52
2023/11/07 00:38:26;;;;;;;;;3.33;2.67;;;;;15.44;100.00;100363.16;2071066;28;45497;-55
2023/11/07 00:39:26;;;;;;;;;4.00;4.00;;;;;15.42;100.00;100363.25;2062881;28;46175;-55
2023/11/07 00:40:26;;;;;;;;;5.00;3.00;;;;;15.43;100.00;100361.44;2064986;28;46514;-54
2023/11/07 00:41:27;;;;;;;;;2.67;0.67;;;;;15.42;100.00;100360.56;2087434;28;46124;-56
2023/11/07 00:42:27;;;;;;;;;3.00;3.00;;;;;15.41;100.00;100358.84;2095658;28;45521;-56
2023/11/07 00:43:28;;;;;;;;;3.33;3.33;;;;;15.42;100.00;100367.72;2098435;28;46587;-55
2023/11/07 00:44:28;;;;;;;;;3.50;2.50;;;;;15.42;100.00;100363.25;2094645;28;46301;-56
2023/11/07 00:45:28;;;;;;;;;3.50;3.50;;;;;15.42;100.00;100365.91;2100698;28;46854;-55
2023/11/07 00:46:28;;;;;;;;;3.00;3.00;;;;;15.42;100.00;100365.03;2101360;28;46903;-54
2023/11/07 00:47:29;;;;;;;;;4.33;2.67;;;;;15.40;100.00;100373.16;2092488;28;46463;-55
2023/11/07 00:48:29;;;;;;;;;3.00;2.67;;;;;15.42;100.00;100365.03;2087654;28;46373;-56
2023/11/07 00:49:29;;;;;;;;;4.67;4.67;;;;;15.41;100.00;100366.84;2096386;28;46444;-51
2023/11/07 00:50:30;;;;;;;;;3.00;1.67;;;;;15.41;100.00;100366.00;2095870;28;46399;-54
2023/11/07 00:51:31;;;;;;;;;2.33;2.33;;;;;15.41;100.00;100366.84;2097224;28;46461;-56
2023/11/07 00:52:31;;;;;;;;;1.67;1.67;;;;;15.41;100.00;100366.84;2096154;28;46685;-53
2023/11/07 00:53:31;;;;;;;;;2.33;2.33;;;;;15.41;100.00;100366.00;2099764;28;46852;-55
2023/11/07 00:54:31;;;;;;;;;2.67;2.67;;;;;15.41;100.00;100368.66;2096366;28;46893;-55
2023/11/07 00:55:32;;;;;;;;;0.67;0.67;;;;;15.42;100.00;100371.25;2094692;28;46539;-53
2023/11/07 00:56:32;;;;;;;;;3.67;3.67;;;;;15.43;100.00;100370.31;2099174;28;46485;-56
2023/11/07 00:57:32;;;;;;;;;3.00;2.00;;;;;15.44;100.00;100369.38;2097151;28;46873;-54
2023/11/07 00:58:33;;;;;;;;;1.67;1.67;;;;;15.46;100.00;100375.50;2102110;28;46465;-57
2023/11/07 00:59:34;;;;;;;;;2.67;2.67;;;;;15.46;100.00;100369.31;2094401;28;46854;-54
2023/11/07 01:00:35;;;;;;;;;2.33;2.33;;;;;15.47;100.00;100371.03;2095748;28;46274;-54
2023/11/07 01:01:36;;;;;;;;;3.00;3.00;;;;;15.47;100.00;100371.91;2092884;28;46639;-55
2023/11/07 01:02:37;;;;;;;;;2.00;2.00;;;;;15.47;100.00;100369.22;2095248;28;46265;-55
2023/11/07 01:03:37;;;;;;;;;2.00;2.00;;;;;15.47;100.00;100371.91;2095734;28;46241;-56
2023/11/07 01:04:38;;;;;;;;;2.00;2.00;;;;;15.47;100.00;100368.34;2099425;28;46220;-58
2023/11/07 01:05:39;;;;;;;;;3.67;2.33;;;;;15.49;100.00;100374.50;2097795;28;46631;-50
2023/11/07 01:06:39;;;;;;;;;3.67;3.67;;;;;15.48;100.00;100372.75;2100711;28;46758;-52
2023/11/07 01:07:39;;;;;;;;;2.00;2.00;;;;;15.49;100.00;100379.84;2096392;28;46588;-55
2023/11/07 01:08:40;;;;;;;;;2.67;2.67;;;;;15.48;100.00;100387.00;2098656;28;46679;-57
2023/11/07 01:09:41;;;;;;;;;2.00;2.00;;;;;15.49;100.00;100379.84;2093541;28;46816;-56
2023/11/07 01:10:41;;;;;;;;;1.67;1.67;;;;;15.48;100.00;100373.63;2096151;28;46492;-56
2023/11/07 01:11:41;;;;;;;;;2.67;2.67;;;;;15.49;100.00;100377.16;2101922;28;46772;-57
2023/11/07 01:12:42;;;;;;;;;2.67;2.67;;;;;15.49;100.00;100377.16;2098585;28;46725;-56
2023/11/07 01:13:42;;;;;;;;;1.67;1.67;;;;;15.49;100.00;100377.16;2090485;28;46391;-52
2023/11/07 01:14:43;;;;;;;;;2.00;2.00;;;;;15.48;100.00;100380.78;2068531;28;46520;-52
2023/11/07 01:15:44;;;;;;;;;3.00;3.00;;;;;15.47;100.00;100385.28;2088531;28;46213;-56
2023/11/07 01:16:45;;;;;;;;;2.00;1.75;;;;;15.47;100.00;100385.28;2080519;28;46635;-53
2023/11/07 01:17:45;;;;;;;;;1.67;1.67;;;;;15.46;100.00;100386.22;2074067;28;46368;-53
2023/11/07 01:18:46;;;;;;;;;2.67;1.67;;;;;15.46;100.00;100390.69;2059711;28;46258;-52
2023/11/07 01:19:46;;;;;;;;;3.33;3.33;;;;;15.45;100.00;100389.81;2076862;28;45427;-55
2023/11/07 01:20:46;;;;;;;;;2.00;2.00;;;;;15.45;100.00;100392.50;2079677;28;46266;-58
2023/11/07 01:21:47;;;;;;;;;1.67;1.67;;;;;15.46;100.00;100393.38;2090619;28;45860;-54
2023/11/07 01:22:49;;;;;;;;;1.00;1.00;;;;;15.46;100.00;100402.25;2067980;28;46574;-54
2023/11/07 01:23:49;;;;;;;;;2.50;2.50;;;;;15.46;100.00;100398.72;2088580;27;46197;-56
2023/11/07 01:24:49;;;;;;;;;2.00;2.00;;;;;15.46;100.00;100399.59;2086133;28;46192;-56
2023/11/07 01:25:50;;;;;;;;;2.00;2.00;;;;;15.45;100.00;100402.34;2074421;28;46149;-55
2023/11/07 01:26:50;;;;;;;;;3.00;3.00;;;;;15.46;100.00;100398.72;2092856;28;46652;-56
2023/11/07 01:27:52;;;;;;;;;0.67;0.33;;;;;15.46;100.00;100404.06;2076273;28;45427;-55
2023/11/07 01:28:53;;;;;;;;;2.00;2.00;;;;;15.46;100.00;100402.25;2071066;27;46315;-53
2023/11/07 01:29:53;;;;;;;;;1.33;1.33;;;;;15.46;100.00;100406.75;2072024;28;46730;-54
2023/11/07 01:30:54;;;;;;;;;2.00;2.00;;;;;15.46;100.00;100399.59;2071088;28;46333;-54
2023/11/07 01:31:55;;;;;;;;;1.00;1.00;;;;;15.44;100.00;100404.13;2094577;28;46386;-55
2023/11/07 01:32:57;;;;;;;;;2.33;2.33;;;;;15.45;100.00;100407.69;2082964;28;46829;-54
2023/11/07 01:33:58;;;;;;;;;1.50;1.50;;;;;15.44;100.00;100408.63;2075637;28;46289;-54
2023/11/07 01:34:59;;;;;;;;;2.75;1.75;;;;;15.44;100.00;100409.50;2092708;28;46748;-55
2023/11/07 01:35:59;;;;;;;;;1.33;1.33;;;;;15.44;100.00;100404.13;2064264;27;45594;-54
2023/11/07 01:36:59;;;;;;;;;1.00;1.00;;;;;15.45;100.00;100413.03;2086461;28;47787;-56
2023/11/07 01:37:59;;;;;;;;;2.00;2.00;;;;;15.45;100.00;100413.03;2091045;28;46408;-53
2023/11/07 01:39:00;;;;;;;;;1.33;1.33;;;;;15.44;100.00;100420.19;2074127;28;47007;-53
2023/11/07 01:40:00;;;;;;;;;2.00;2.00;;;;;15.43;100.00;100407.75;2088048;28;46625;-53
2023/11/07 01:41:00;;;;;;;;;0.67;0.67;;;;;15.44;100.00;100411.28;2056074;28;46286;-54
2023/11/07 01:42:03;;;;;;;;;1.67;1.67;;;;;15.44;100.00;100408.63;2065193;28;46684;-56
2023/11/07 01:43:15;;;;;;;;;0.75;0.75;;;;;15.45;100.00;100415.69;2063165;28;46606;-57
2023/11/07 01:44:15;;;;;;;;;2.00;2.00;;;;;15.44;100.00;100419.31;2073297;28;46921;-56
2023/11/07 01:45:16;;;;;;;;;1.00;1.00;;;;;15.43;100.00;100413.09;2074989;28;46665;-51
2023/11/07 01:46:17;;;;;;;;;1.50;1.50;;;;;15.44;100.00;100412.16;2094292;28;46866;-53
2023/11/07 01:47:20;;;;;;;;;0.67;0.67;;;;;15.45;100.00;100413.03;2068469;28;46474;-57
2023/11/07 01:52:16;;;;;;;;;0.50;0.50;;;;;15.44;100.00;100416.66;2068134;28;46402;-57
2023/11/07 01:53:18;;;;;;;;;1.00;1.00;;;;;15.44;100.00;100408.63;2080106;28;46856;-56
2023/11/07 01:54:19;;;;;;;;;1.00;1.00;;;;;15.43;100.00;100412.25;2094077;28;46614;-54
2023/11/07 01:55:19;;;;;;;;;0.33;0.33;;;;;15.42;100.00;100413.19;2096983;28;46472;-56
2023/11/07 01:56:23;;;;;;;;;1.33;0.67;;;;;15.43;100.00;100410.44;2086232;28;46853;-57
2023/11/07 01:57:24;;;;;;;;;1.00;1.00;;;;;15.42;100.00;100406.03;2059500;28;46846;-51
2023/11/07 01:58:24;;;;;;;;;1.00;1.00;;;;;15.42;100.00;100410.50;2067039;28;46925;-56
2023/11/07 01:59:26;;;;;;;;;0.00;0.00;;;;;15.39;100.00;100414.19;2067417;28;45259;-56
2023/11/07 02:00:27;;;;;;;;;0.00;0.00;;;;;15.41;100.00;100411.44;2071934;28;46529;-56
2023/11/07 02:01:31;;;;;;;;;0.00;0.00;;;;;15.39;100.00;100408.84;2074124;28;46375;-57
2023/11/07 02:02:32;;;;;;;;;1.25;1.25;;;;;15.40;100.00;100407.03;2064601;28;46310;-56
2023/11/07 02:03:32;;;;;;;;;1.00;1.00;;;;;15.39;100.00;100407.97;2076265;28;46849;-56
2023/11/07 02:04:33;;;;;;;;;1.67;1.67;;;;;15.38;100.00;100414.28;2077860;28;46747;-52
2023/11/07 02:05:33;;;;;;;;;0.67;0.67;;;;;15.37;100.00;100410.69;2065090;28;46432;-55
2023/11/07 02:06:34;;;;;;;;;0.33;0.00;;;;;15.36;100.00;100408.09;2077817;28;46778;-56
2023/11/07 02:07:34;;;;;;;;;0.00;0.00;;;;;15.34;100.00;100412.66;2066763;28;46282;-57
2023/11/07 02:08:35;;;;;;;;;1.00;1.00;;;;;15.36;100.00;100418.78;2068314;28;45529;-52
2023/11/07 02:09:35;;;;;;;;;0.00;0.00;;;;;15.35;100.00;100417.06;2073400;27;46299;-55
2023/11/07 02:10:37;;;;;;;;;1.00;1.00;;;;;15.34;100.00;100413.53;2075926;28;45963;-54
2023/11/07 02:11:37;;;;;;;;;1.50;1.50;;;;;15.34;100.00;100416.19;2075194;28;46944;-57
2023/11/07 02:12:38;;;;;;;;;0.67;0.67;;;;;15.34;100.00;100418.00;2077659;28;46267;-57
2023/11/07 02:13:38;;;;;;;;;1.33;1.00;;;;;15.35;100.00;100423.28;2058705;28;46497;-58
2023/11/07 02:14:40;;;;;;;;;2.00;1.00;;;;;15.32;100.00;100415.41;2059252;28;46349;-57
2023/11/07 02:15:41;;;;;;;;;1.00;1.00;;;;;15.35;100.00;100423.28;2072277;28;47145;-51
2023/11/07 02:16:41;;;;;;;;;0.33;0.33;;;;;15.35;100.00;100419.72;2071384;28;46292;-56
2023/11/07 02:17:42;;;;;;;;;2.33;1.00;;;;;15.35;100.00;100433.09;2080437;28;46275;-54
2023/11/07 02:18:42;;;;;;;;;0.33;0.33;;;;;15.35;100.00;100427.75;2057780;28;45737;-55
2023/11/07 02:19:42;;;;;;;;;1.00;1.00;;;;;15.34;100.00;100426.03;2074267;28;46468;-56
2023/11/07 02:20:45;;;;;;;;;1.00;1.00;;;;;15.34;100.00;100429.56;2075986;28;46292;-58
2023/11/07 02:21:46;;;;;;;;;0.00;0.00;;;;;15.33;100.00;100435.84;2064485;28;46574;-57
2023/11/07 02:22:50;;;;;;;;;2.00;0.25;;;;;15.32;100.00;100432.31;2076283;28;46461;-51
2023/11/07 02:23:50;;;;;;;;;1.00;1.00;;;;;15.31;100.00;100433.25;2070664;28;46355;-56
2023/11/07 02:24:53;;;;;;;;;1.00;1.00;;;;;15.31;100.00;100435.06;2069389;28;46229;-57
2023/11/07 02:25:53;;;;;;;;;0.25;0.25;;;;;15.30;100.00;100444.03;2082189;28;47379;-56
2023/11/07 02:26:54;;;;;;;;;1.67;1.67;;;;;15.29;100.00;100442.28;2054137;28;45596;-56
2023/11/07 02:27:55;;;;;;;;;2.75;1.75;;;;;15.28;100.00;100432.53;2062194;28;46668;-57
2023/11/07 02:28:55;;;;;;;;;1.00;1.00;;;;;15.27;100.00;100439.69;2071051;28;46872;-56
2023/11/07 02:29:56;;;;;;;;;2.00;2.00;;;;;15.26;100.00;100440.63;2047728;28;46813;-53
2023/11/07 02:30:57;;;;;;;;;1.00;1.00;;;;;15.24;100.00;100439.81;2071823;28;46537;-56
2023/11/07 02:31:59;;;;;;;;;1.25;1.00;;;;;15.24;100.00;100442.47;2067233;28;46477;-55
2023/11/07 02:33:04;;;;;;;;;1.00;1.00;;;;;15.23;100.00;100438.06;2053349;28;46855;-56
2023/11/07 02:34:05;;;;;;;;;0.75;0.75;;;;;15.24;100.00;100438.94;2077831;28;46517;-55
2023/11/07 02:35:06;;;;;;;;;1.00;1.00;;;;;15.22;100.00;100439.00;2059039;28;46394;-55
2023/11/07 02:36:07;;;;;;;;;1.00;1.00;;;;;15.22;100.00;100436.34;2063411;28;46418;-57
2023/11/07 02:37:07;;;;;;;;;1.00;1.00;;;;;15.22;100.00;100444.34;2062508;28;45893;-56
2023/11/07 02:38:08;;;;;;;;;2.67;1.33;;;;;15.22;100.00;100452.38;2046965;28;46503;-50
2023/11/07 02:39:12;;;;;;;;;1.33;1.33;;;;;15.23;100.00;100446.09;2063807;28;45425;-56
2023/11/07 02:40:13;;;;;;;;;1.00;1.00;;;;;15.21;100.00;100445.28;2067299;28;46451;-53
2023/11/07 02:41:14;;;;;;;;;1.00;1.00;;;;;15.20;100.00;100443.56;2044985;28;46623;-53
2023/11/07 02:42:15;;;;;;;;;2.33;1.33;;;;;15.21;100.00;100453.31;2056053;28;46496;-57
2023/11/07 02:43:15;;;;;;;;;1.00;1.00;;;;;15.19;100.00;100455.19;2061416;28;46496;-58
2023/11/07 02:44:16;;;;;;;;;1.00;1.00;;;;;15.20;100.00;100456.06;2067254;28;47206;-54
2023/11/07 02:45:16;;;;;;;;;1.33;1.33;;;;;15.19;100.00;100455.19;2084327;28;46644;-57
2023/11/07 02:46:17;;;;;;;;;1.00;0.67;;;;;15.19;100.00;100457.88;2058355;28;47092;-55
2023/11/07 02:47:17;;;;;;;;;1.00;1.00;;;;;15.18;100.00;100464.16;2066502;28;46317;-55
2023/11/07 02:48:17;;;;;;;;;2.00;1.67;;;;;15.18;100.00;100464.16;2057559;28;46327;-56
2023/11/07 02:49:18;;;;;;;;;0.00;0.00;;;;;15.17;100.00;100464.22;2074513;28;47467;-56
2023/11/07 02:50:19;;;;;;;;;0.00;0.00;;;;;15.17;100.00;100465.09;2059543;28;47142;-55
2023/11/07 02:51:19;;;;;;;;;2.75;1.25;;;;;15.16;100.00;100458.00;2068336;28;45043;-54
2023/11/07 02:52:20;;;;;;;;;0.33;0.33;;;;;15.15;100.00;100464.28;2075723;28;45527;-56
2023/11/07 02:53:21;;;;;;;;;1.00;1.00;;;;;15.15;100.00;100458.09;2054496;28;47103;-54
2023/11/07 02:54:21;;;;;;;;;2.00;1.00;;;;;15.14;100.00;100459.03;2070398;28;45903;-55
2023/11/07 02:55:22;;;;;;;;;1.00;1.00;;;;;15.14;100.00;100464.38;2068129;28;46593;-56
2023/11/07 02:56:26;;;;;;;;;3.00;3.00;;;;;15.16;100.00;100458.00;2058047;28;46189;-56
2023/11/07 02:57:26;;;;;;;;;0.75;0.75;;;;;15.14;100.00;100459.03;2069778;28;46570;-54
2023/11/07 02:58:27;;;;;;;;;1.33;1.33;;;;;15.13;100.00;100462.63;2065704;27;46386;-52
2023/11/07 02:59:27;;;;;;;;;0.00;0.00;;;;;15.12;100.00;100460.88;2080535;27;46766;-56
2023/11/07 03:00:27;;;;;;;;;1.33;1.33;;;;;15.10;100.00;100455.59;2067013;28;46486;-57
2023/11/07 03:01:29;;;;;;;;;1.00;1.00;;;;;15.11;100.00;100454.66;2064673;28;46497;-56
2023/11/07 03:02:29;;;;;;;;;0.00;0.00;;;;;15.10;100.00;100458.25;2078971;28;46564;-56
2023/11/07 03:03:31;;;;;;;;;2.00;1.33;;;;;15.10;100.00;100460.06;2074596;28;46269;-54
2023/11/07 03:04:32;;;;;;;;;2.00;2.00;;;;;15.08;100.00;100453.94;2064956;28;46512;-50
2023/11/07 03:05:32;;;;;;;;;2.67;2.00;;;;;15.09;100.00;100459.19;2077959;28;46916;-55
2023/11/07 03:06:32;;;;;;;;;2.00;1.00;;;;;15.08;100.00;100460.16;2064624;28;45550;-55
2023/11/07 03:07:34;;;;;;;;;1.67;1.67;;;;;15.07;100.00;100449.53;2064969;28;46770;-52
2023/11/07 03:08:35;;;;;;;;;0.75;0.75;;;;;15.06;100.00;100450.47;2076373;28;46959;-54
2023/11/07 03:09:35;;;;;;;;;3.67;1.67;;;;;15.04;100.00;100445.19;2061408;28;46299;-56
2023/11/07 03:10:36;;;;;;;;;1.00;1.00;;;;;15.04;100.00;100444.31;2073400;28;46929;-55
2023/11/07 03:11:36;;;;;;;;;2.00;2.00;;;;;15.02;100.00;100445.25;2074039;28;46129;-57
2023/11/07 03:12:37;;;;;;;;;1.00;1.00;;;;;15.01;100.00;100448.00;2059924;28;46724;-56
2023/11/07 03:13:37;;;;;;;;;2.33;0.67;;;;;15.01;100.00;100448.88;2073531;28;46570;-57
2023/11/07 03:14:38;;;;;;;;;2.67;2.67;;;;;14.98;100.00;100451.66;2064875;28;46751;-55
2023/11/07 03:15:39;;;;;;;;;2.00;0.00;;;;;14.98;100.00;100454.34;2068923;28;46571;-55
2023/11/07 03:16:40;;;;;;;;;1.00;1.00;;;;;14.98;100.00;100456.13;2077963;28;46484;-55
2023/11/07 03:17:41;;;;;;;;;3.00;3.00;;;;;14.93;100.00;100453.69;2066087;28;46309;-55
2023/11/07 03:18:41;;;;;;;;;3.00;1.67;;;;;14.92;100.00;100453.75;2071352;28;46428;-56
2023/11/07 03:19:43;;;;;;;;;2.00;1.00;;;;;14.97;100.00;100449.94;2070716;28;46203;-56
2023/11/07 03:20:43;;;;;;;;;2.00;2.00;;;;;14.91;100.00;100455.56;2077016;27;46347;-57
2023/11/07 03:21:43;;;;;;;;;1.00;1.00;;;;;14.88;100.00;100458.38;2077693;28;46237;-56
2023/11/07 03:22:44;;;;;;;;;2.00;1.00;;;;;14.87;100.00;100447.75;2064108;28;46333;-57
2023/11/07 03:23:45;;;;;;;;;2.00;2.00;;;;;14.83;100.00;100447.00;2089163;28;46455;-56
2023/11/07 03:24:46;;;;;;;;;2.00;2.00;;;;;14.80;100.00;100452.47;2081708;28;46327;-58
2023/11/07 03:25:46;;;;;;;;;1.25;1.25;;;;;14.80;100.00;100449.81;2077466;28;46360;-56
2023/11/07 03:26:46;;;;;;;;;0.67;0.67;;;;;14.80;100.00;100455.16;2092412;28;46269;-57
2023/11/07 03:27:47;;;;;;;;;1.00;1.00;;;;;14.80;100.00;100454.28;2072020;28;46296;-57
2023/11/07 03:28:47;;;;;;;;;2.33;2.00;;;;;14.78;100.00;100454.34;2080763;28;46258;-57
2023/11/07 03:29:47;;;;;;;;;1.67;1.67;;;;;14.79;100.00;100456.09;2088609;27;46744;-55
2023/11/07 03:30:48;;;;;;;;;1.00;1.00;;;;;14.78;100.00;100464.16;2066866;28;46568;-51
2023/11/07 03:31:49;;;;;;;;;1.00;1.00;;;;;14.75;100.00;100459.81;2087596;28;46781;-53
2023/11/07 03:32:49;;;;;;;;;2.00;2.00;;;;;14.76;100.00;100461.56;2079123;28;45927;-56
2023/11/07 03:33:50;;;;;;;;;0.00;0.00;;;;;14.76;100.00;100461.56;2076424;27;46374;-53
2023/11/07 03:34:50;;;;;;;;;0.33;0.33;;;;;14.76;100.00;100463.38;2089795;28;46647;-55
2023/11/07 03:35:51;;;;;;;;;1.33;1.33;;;;;14.76;100.00;100460.69;2067316;28;45872;-54
2023/11/07 03:36:51;;;;;;;;;2.00;2.00;;;;;14.75;100.00;100467.84;2084338;28;45531;-55
2023/11/07 03:37:51;;;;;;;;;1.00;1.00;;;;;14.73;100.00;100464.34;2071345;28;46293;-57
2023/11/07 03:38:52;;;;;;;;;1.33;1.33;;;;;14.70;100.00;100465.34;2076799;28;46398;-55
2023/11/07 03:39:52;;;;;;;;;1.67;1.67;;;;;14.70;100.00;100470.69;2089385;28;45867;-55
2023/11/07 03:40:52;;;;;;;;;1.00;1.00;;;;;14.71;100.00;100467.09;2079161;28;46651;-56
2023/11/07 03:41:53;;;;;;;;;1.00;1.00;;;;;14.72;100.00;100459.94;2090271;28;46838;-54
2023/11/07 03:42:53;;;;;;;;;1.67;1.67;;;;;14.71;100.00;100469.75;2098255;28;46138;-56
2023/11/07 03:43:54;;;;;;;;;1.00;1.00;;;;;14.71;100.00;100463.53;2097872;28;46546;-55
2023/11/07 03:44:54;;;;;;;;;1.33;1.33;;;;;14.72;100.00;100467.94;2093905;28;46204;-56
2023/11/07 03:45:54;;;;;;;;;1.33;1.33;;;;;14.70;100.00;100467.16;2100506;28;46169;-55
2023/11/07 03:46:55;;;;;;;;;1.33;1.33;;;;;14.69;100.00;100457.41;2093863;28;46555;-56
2023/11/07 03:47:55;;;;;;;;;2.00;2.00;;;;;14.70;100.00;100461.81;2090745;28;46431;-51
2023/11/07 03:48:56;;;;;;;;;1.00;1.00;;;;;14.69;100.00;100457.41;2088140;28;46352;-56
2023/11/07 03:49:56;;;;;;;;;2.00;1.00;;;;;14.69;100.00;100462.75;2096219;27;46148;-56
2023/11/07 03:50:56;;;;;;;;;1.00;1.00;;;;;14.69;100.00;100465.41;2099969;28;46721;-54
2023/11/07 03:51:57;;;;;;;;;2.00;2.00;;;;;14.73;100.00;100464.34;2095118;28;46436;-52
2023/11/07 03:52:57;;;;;;;;;2.00;1.00;;;;;14.72;100.00;100467.94;2097302;28;46650;-56
2023/11/07 03:53:57;;;;;;;;;2.67;1.67;;;;;14.74;100.00;100471.44;2103887;28;46735;-54
2023/11/07 03:54:58;;;;;;;;;0.00;0.00;;;;;14.75;100.00;100473.19;2101042;27;46290;-54
2023/11/07 03:55:58;;;;;;;;;2.67;2.67;;;;;14.75;100.00;100473.19;2087564;28;46663;-55
2023/11/07 03:56:59;;;;;;;;;2.00;2.00;;;;;14.75;100.00;100475.00;2087398;28;46400;-57
2023/11/07 03:58:00;;;;;;;;;1.00;1.00;;;;;14.74;100.00;100471.44;2091035;28;46906;-55
2023/11/07 03:59:00;;;;;;;;;1.50;1.00;;;;;14.68;100.00;100472.56;2090873;28;46841;-57
2023/11/07 04:00:01;;;;;;;;;0.00;0.00;;;;;14.67;100.00;100476.16;2092235;28;45948;-56
2023/11/07 04:01:01;;;;;;;;;2.00;2.00;;;;;14.67;100.00;100470.81;2096596;28;46479;-55
2023/11/07 04:02:03;;;;;;;;;4.00;2.00;;;;;14.66;100.00;100469.09;2096502;28;46556;-57
2023/11/07 04:03:03;;;;;;;;;1.00;1.00;;;;;14.66;100.00;100479.78;2094243;28;45755;-53
2023/11/07 04:04:04;;;;;;;;;1.00;1.00;;;;;14.66;100.00;100470.91;2098150;28;45444;-57
2023/11/07 04:05:04;;;;;;;;;1.33;1.33;;;;;14.66;100.00;100473.56;2096557;28;46789;-57
2023/11/07 04:06:05;;;;;;;;;2.00;1.00;;;;;14.66;100.00;100481.56;2097925;28;46271;-52
2023/11/07 04:07:05;;;;;;;;;1.67;1.67;;;;;14.66;100.00;100484.25;2097598;28;46302;-56
2023/11/07 04:08:06;;;;;;;;;2.67;1.00;;;;;14.67;100.00;100494.00;2095858;28;46285;-54
2023/11/07 04:09:07;;;;;;;;;2.00;2.00;;;;;14.66;100.00;100487.78;2099272;28;47020;-55
2023/11/07 04:10:08;;;;;;;;;1.00;1.00;;;;;14.66;100.00;100487.78;2095652;28;46754;-50
2023/11/07 04:11:08;;;;;;;;;2.00;2.00;;;;;14.66;100.00;100492.25;2095558;28;46537;-53
2023/11/07 04:12:08;;;;;;;;;1.67;1.67;;;;;14.73;100.00;100486.56;2097009;28;46411;-56
2023/11/07 04:13:10;;;;;;;;;1.00;1.00;;;;;14.75;100.00;100488.34;2096636;28;46274;-52
2023/11/07 04:14:10;;;;;;;;;2.00;1.25;;;;;14.76;100.00;100490.94;2074499;28;46574;-54
2023/11/07 04:15:12;;;;;;;;;1.33;1.33;;;;;14.76;100.00;100493.63;2093710;28;46076;-54
2023/11/07 04:16:13;;;;;;;;;2.00;2.00;;;;;14.78;100.00;100493.56;2074257;28;46431;-57
2023/11/07 04:17:15;;;;;;;;;1.75;1.75;;;;;14.77;100.00;100489.16;2066101;28;46080;-57
2023/11/07 04:18:15;;;;;;;;;1.00;1.00;;;;;14.78;100.00;100483.72;2088781;28;46429;-57
2023/11/07 04:19:15;;;;;;;;;2.00;2.00;;;;;14.79;100.00;100489.94;2063684;28;46530;-53
2023/11/07 04:20:16;;;;;;;;;1.00;1.00;;;;;14.78;100.00;100482.88;2090400;28;46414;-57
2023/11/07 04:21:17;;;;;;;;;1.33;1.33;;;;;14.78;100.00;100482.88;2080529;28;46288;-52
2023/11/07 04:22:17;;;;;;;;;3.00;3.00;;;;;14.79;100.00;100488.13;2068338;28;45664;-57
2023/11/07 04:23:18;;;;;;;;;1.00;1.00;;;;;14.79;100.00;100492.63;2074023;28;46331;-53
2023/11/07 04:24:22;;;;;;;;;2.00;2.00;;;;;14.80;100.00;100484.53;2063254;28;46440;-54
2023/11/07 04:25:22;;;;;;;;;2.00;2.00;;;;;14.80;100.00;100487.19;2070536;28;46574;-54
2023/11/07 04:26:22;;;;;;;;;2.00;2.00;;;;;14.82;100.00;100489.81;2067999;28;46403;-56
2023/11/07 04:27:23;;;;;;;;;1.00;1.00;;;;;14.82;100.00;100490.66;2062789;28;46266;-54
2023/11/07 04:28:25;;;;;;;;;2.00;2.00;;;;;14.83;100.00;100491.53;2072829;28;46252;-55
2023/11/07 04:29:26;;;;;;;;;2.00;2.00;;;;;14.82;100.00;100488.00;2068889;28;46857;-54
2023/11/07 04:30:27;;;;;;;;;2.25;2.25;;;;;14.83;100.00;100495.06;2064720;28;46237;-56
2023/11/07 04:31:27;;;;;;;;;2.00;2.00;;;;;14.84;100.00;100503.97;2073156;28;46371;-54
2023/11/07 04:32:28;;;;;;;;;1.00;1.00;;;;;14.85;100.00;100501.22;2062768;28;46680;-56
2023/11/07 04:33:28;;;;;;;;;1.00;1.00;;;;;14.85;100.00;100500.34;2073800;28;45480;-54
2023/11/07 04:34:28;;;;;;;;;1.00;1.00;;;;;14.87;100.00;100501.19;2073488;28;46152;-53
2023/11/07 04:35:29;;;;;;;;;5.00;2.00;;;;;14.86;100.00;100504.75;2062928;28;46188;-52
2023/11/07 04:36:30;;;;;;;;;2.00;2.00;;;;;14.86;100.00;100499.41;2072927;28;46797;-54
2023/11/07 04:37:31;;;;;;;;;2.00;2.00;;;;;14.86;100.00;100500.28;2070993;28;46838;-54
2023/11/07 04:38:31;;;;;;;;;2.00;2.00;;;;;14.86;100.00;100508.28;2075710;28;46751;-54
2023/11/07 04:39:32;;;;;;;;;2.00;1.00;;;;;14.84;100.00;100507.50;2079327;28;46555;-56
2023/11/07 04:40:32;;;;;;;;;1.00;1.00;;;;;14.83;100.00;100505.75;2061815;28;46460;-58
2023/11/07 04:41:35;;;;;;;;;1.67;1.67;;;;;14.84;100.00;100509.31;2072587;28;46211;-59
2023/11/07 04:42:36;;;;;;;;;3.75;2.75;;;;;14.83;100.00;100512.91;2072523;28;46790;-57